Terminal Aerodrome Forecast
Issued by NWS Wilmington, OH

Current Version | Previous Version | Text Only | Print | Product List | Glossary Off
Versions: 1 2 3 4 5 6 7 8 9 10 11 12 13 14 15 16 17 18 19 20 21 22 23

000
FTUS41 KILN 200700 AAA
TAFCVG
TAF AMD
KCVG 200746Z 2008/2112 29012KT P6SM OVC025
     FM201300 28012KT P6SM SKC
     FM201900 26013G18KT P6SM BKN040
     FM202200 26011KT P6SM BKN030
     FM210900 30007KT P6SM SKC=

USA.gov is the U.S. government's official web portal to all federal, state and local government web resources and services.